createdAt,value
2018-07-31T00:00:16.693Z,6.23
2018-07-31T00:02:44.787Z,7.17
2018-07-31T00:05:12.907Z,8.10
2018-07-31T00:07:44.009Z,12.13
2018-07-31T00:10:12.810Z,6.77
2018-07-31T00:12:46.816Z,6.70
2018-07-31T00:15:22.275Z,9.40
2018-07-31T00:17:51.686Z,8.97
2018-07-31T00:20:22.999Z,11.00
2018-07-31T00:22:52.708Z,8.57
2018-07-31T00:25:20.970Z,10.73
2018-07-31T00:27:53.055Z,6.50
2018-07-31T00:30:21.188Z,7.27
2018-07-31T00:32:52.637Z,9.13
2018-07-31T00:35:24.120Z,9.13
2018-07-31T00:37:52.294Z,8.00
2018-07-31T00:40:20.414Z,7.53
2018-07-31T00:42:48.666Z,7.03
2018-07-31T00:45:16.786Z,8.47
2018-07-31T00:47:52.256Z,10.00
2018-07-31T00:50:20.317Z,8.73
2018-07-31T00:52:52.142Z,8.33
2018-07-31T00:55:20.250Z,10.90
2018-07-31T00:57:54.303Z,8.87
2018-07-31T01:00:31.943Z,7.93
2018-07-31T01:03:03.074Z,8.60
2018-07-31T01:05:31.111Z,7.73
2018-07-31T01:07:59.188Z,8.80
2018-07-31T01:13:20.373Z,10.43
2018-07-31T01:15:48.489Z,8.93
2018-07-31T01:18:16.566Z,8.37
2018-07-31T01:20:47.661Z,9.77
2018-07-31T01:23:22.547Z,8.30
2018-07-31T01:25:50.381Z,9.40
2018-07-31T01:28:23.934Z,9.00
2018-07-31T01:30:59.654Z,10.10
2018-07-31T01:33:27.705Z,11.90
2018-07-31T01:35:55.750Z,7.67
2018-07-31T01:38:33.441Z,8.20
2018-07-31T01:41:01.972Z,9.33
2018-07-31T01:46:20.350Z,8.03
2018-07-31T01:48:48.209Z,8.73
2018-07-31T01:51:16.253Z,8.93
2018-07-31T01:54:00.461Z,9.30
2018-07-31T01:56:29.310Z,8.60
2018-07-31T01:59:03.669Z,8.33
2018-07-31T02:01:31.737Z,8.40
2018-07-31T02:03:59.764Z,9.33
2018-07-31T02:06:28.584Z,10.90
2018-07-31T02:09:02.301Z,9.00
2018-07-31T02:11:30.225Z,10.87
2018-07-31T02:13:59.274Z,11.83
2018-07-31T02:16:27.326Z,8.33
2018-07-31T02:18:55.434Z,9.87
2018-07-31T02:21:23.493Z,9.83
2018-07-31T02:23:51.542Z,9.07
2018-07-31T02:26:19.581Z,8.20
2018-07-31T02:28:47.632Z,8.87
2018-07-31T02:31:22.010Z,8.03
2018-07-31T02:33:49.956Z,11.70
2018-07-31T02:36:18.029Z,10.00
2018-07-31T02:38:52.089Z,10.00
2018-07-31T02:41:20.160Z,9.27
2018-07-31T02:43:48.211Z,8.77
2018-07-31T02:46:16.257Z,9.67
2018-07-31T02:48:44.324Z,9.07
2018-07-31T02:54:02.922Z,9.40
2018-07-31T02:56:30.998Z,9.73
2018-07-31T02:59:02.587Z,9.10
2018-07-31T03:01:30.654Z,9.93
2018-07-31T03:04:04.851Z,9.00
2018-07-31T03:06:42.906Z,9.73
2018-07-31T03:09:10.959Z,11.33
2018-07-31T03:11:43.434Z,13.90
2018-07-31T03:14:12.278Z,10.63
2018-07-31T03:16:40.323Z,12.27
2018-07-31T03:19:08.437Z,9.37
2018-07-31T03:21:36.477Z,11.77
2018-07-31T03:24:11.653Z,9.63
2018-07-31T03:26:39.698Z,10.10
2018-07-31T03:29:07.586Z,9.97
2018-07-31T03:31:35.629Z,10.30
2018-07-31T03:34:13.592Z,10.07
2018-07-31T03:36:41.629Z,10.43
2018-07-31T03:39:13.322Z,11.33
2018-07-31T03:41:42.870Z,13.97
2018-07-31T03:44:12.749Z,11.37
2018-07-31T03:46:40.825Z,9.83
2018-07-31T03:49:08.923Z,10.83
2018-07-31T03:51:43.192Z,9.97
2018-07-31T03:54:11.302Z,14.57
2018-07-31T03:56:43.148Z,10.77
2018-07-31T03:59:12.853Z,9.10
2018-07-31T04:01:41.116Z,9.57
2018-07-31T04:04:09.209Z,11.33
2018-07-31T04:06:37.309Z,10.50
2018-07-31T04:09:08.573Z,9.37
2018-07-31T04:11:36.741Z,10.53
2018-07-31T04:14:11.764Z,10.30
2018-07-31T04:16:40.110Z,10.97
2018-07-31T04:19:08.273Z,11.00
2018-07-31T04:21:42.429Z,11.53
2018-07-31T04:24:13.631Z,9.50
2018-07-31T04:26:41.757Z,10.47
2018-07-31T04:29:12.986Z,11.77
2018-07-31T04:31:41.072Z,10.00
2018-07-31T04:34:09.234Z,12.70
2018-07-31T04:36:37.430Z,10.40
2018-07-31T04:39:12.414Z,9.97
2018-07-31T04:41:44.068Z,11.40
2018-07-31T04:44:12.192Z,10.23
2018-07-31T04:46:40.449Z,9.87
2018-07-31T04:49:08.586Z,9.17
2018-07-31T04:51:36.684Z,9.30
2018-07-31T04:54:04.906Z,10.57
2018-07-31T04:56:32.844Z,9.43
2018-07-31T04:59:04.134Z,9.97
2018-07-31T05:01:32.243Z,10.33
2018-07-31T05:04:00.462Z,14.10
2018-07-31T05:06:28.565Z,9.73
2018-07-31T05:09:02.426Z,15.53
2018-07-31T05:11:30.624Z,9.60
2018-07-31T05:13:58.743Z,11.00
2018-07-31T05:16:26.832Z,12.37
2018-07-31T05:19:02.094Z,10.95
2018-07-31T05:21:30.202Z,11.38
2018-07-31T05:23:58.297Z,11.00
2018-07-31T05:26:32.045Z,10.55
2018-07-31T05:29:00.211Z,11.38
2018-07-31T05:31:28.459Z,8.80
2018-07-31T05:34:02.817Z,9.70
2018-07-31T05:36:31.042Z,8.48
2018-07-31T05:38:59.157Z,8.78
2018-07-31T05:41:27.480Z,7.72
2018-07-31T05:44:02.640Z,9.05
2018-07-31T05:46:30.816Z,9.10
2018-07-31T05:49:02.880Z,7.85
2018-07-31T05:51:32.313Z,9.83
2018-07-31T05:54:00.490Z,8.90
2018-07-31T05:56:28.665Z,7.80
2018-07-31T05:58:56.954Z,8.55
2018-07-31T06:01:25.174Z,8.48
2018-07-31T06:03:53.360Z,7.37
2018-07-31T06:06:21.599Z,8.50
2018-07-31T06:08:52.754Z,8.23
2018-07-31T06:11:22.318Z,7.25
2018-07-31T06:13:54.241Z,8.50
2018-07-31T06:16:32.377Z,8.38
2018-07-31T06:19:00.548Z,8.28
2018-07-31T06:21:28.694Z,8.40
2018-07-31T06:23:56.844Z,7.75
2018-07-31T06:26:24.943Z,7.58
2018-07-31T06:28:53.170Z,9.38
2018-07-31T06:31:21.343Z,7.72
2018-07-31T06:33:53.028Z,7.80
2018-07-31T06:36:21.147Z,8.40
2018-07-31T06:38:49.316Z,6.87
2018-07-31T06:41:23.255Z,6.70
2018-07-31T06:43:52.569Z,9.33
2018-07-31T06:46:22.189Z,7.97
2018-07-31T06:48:50.319Z,8.28
2018-07-31T06:51:22.206Z,7.75
2018-07-31T06:53:54.059Z,14.47
2018-07-31T06:56:22.875Z,7.37
2018-07-31T06:58:52.453Z,11.25
2018-07-31T07:01:22.419Z,10.20
2018-07-31T07:03:54.135Z,6.97
2018-07-31T07:06:22.195Z,6.75
2018-07-31T07:08:50.365Z,8.13
2018-07-31T07:11:18.483Z,10.23
2018-07-31T07:13:46.593Z,7.45
2018-07-31T07:16:22.082Z,8.33
2018-07-31T07:18:50.041Z,8.88
2018-07-31T07:21:18.076Z,7.03
2018-07-31T07:23:46.155Z,9.23
2018-07-31T07:26:14.263Z,9.10
2018-07-31T07:28:42.414Z,12.00
2018-07-31T07:31:10.550Z,11.68
2018-07-31T07:33:38.673Z,9.73
2018-07-31T07:36:06.765Z,8.83
2018-07-31T07:38:42.634Z,6.30
2018-07-31T07:41:10.737Z,6.90
2018-07-31T07:43:38.823Z,10.18
2018-07-31T07:46:07.087Z,8.00
2018-07-31T07:48:35.264Z,7.08
2018-07-31T07:51:12.876Z,6.40
2018-07-31T07:53:44.076Z,9.70
2018-07-31T07:56:12.724Z,7.42
2018-07-31T07:58:40.851Z,6.40
2018-07-31T08:01:14.588Z,7.00
2018-07-31T08:03:52.366Z,6.35
2018-07-31T08:06:20.480Z,10.43
2018-07-31T08:08:48.631Z,8.63
2018-07-31T08:11:22.307Z,7.30
2018-07-31T08:13:50.455Z,7.08
2018-07-31T08:16:18.622Z,9.83
2018-07-31T08:18:46.769Z,6.30
2018-07-31T08:21:21.883Z,9.23
2018-07-31T08:23:53.043Z,9.18
2018-07-31T08:26:21.249Z,7.03
2018-07-31T08:28:52.457Z,5.80
2018-07-31T08:31:24.101Z,6.62
2018-07-31T08:33:53.221Z,8.18
2018-07-31T08:36:22.669Z,9.25
2018-07-31T08:38:50.756Z,10.40
2018-07-31T08:41:22.415Z,8.68
2018-07-31T08:43:50.541Z,7.03
2018-07-31T08:46:18.685Z,7.65
2018-07-31T08:48:46.874Z,9.70
2018-07-31T08:51:22.339Z,6.53
2018-07-31T08:53:50.383Z,13.88
2018-07-31T08:56:18.536Z,5.62
2018-07-31T08:58:52.936Z,5.67
2018-07-31T09:01:21.052Z,5.85
2018-07-31T09:03:52.778Z,7.50
2018-07-31T09:06:22.780Z,7.95
2018-07-31T09:08:51.862Z,5.72
2018-07-31T09:11:19.955Z,5.75
2018-07-31T09:13:48.093Z,5.47
2018-07-31T09:16:21.948Z,6.95
2018-07-31T09:18:53.912Z,9.05
2018-07-31T09:21:22.858Z,5.65
2018-07-31T09:23:50.944Z,5.78
2018-07-31T09:26:24.694Z,5.30
2018-07-31T09:29:02.627Z,6.55
2018-07-31T09:31:33.871Z,8.33
2018-07-31T09:34:02.032Z,6.50
2018-07-31T09:36:33.358Z,7.28
2018-07-31T09:39:03.278Z,5.50
2018-07-31T09:41:31.495Z,5.35
2018-07-31T09:43:59.642Z,5.50
2018-07-31T09:46:27.737Z,5.87
2018-07-31T09:49:02.396Z,5.33
2018-07-31T09:51:33.645Z,6.28
2018-07-31T09:54:01.839Z,7.35
2018-07-31T09:56:29.937Z,5.55
2018-07-31T09:58:58.085Z,5.60
2018-07-31T10:01:26.241Z,6.92
2018-07-31T10:03:54.326Z,5.20
2018-07-31T10:06:22.477Z,6.92
2018-07-31T10:08:53.723Z,7.70
2018-07-31T10:11:22.277Z,10.40
2018-07-31T10:13:54.174Z,6.70
2018-07-31T10:16:22.239Z,6.10
2018-07-31T10:18:50.167Z,5.60
2018-07-31T10:21:18.297Z,5.45
2018-07-31T10:23:46.453Z,6.40
2018-07-31T10:26:22.341Z,6.20
2018-07-31T10:28:50.402Z,5.90
2018-07-31T10:31:18.523Z,6.20
2018-07-31T10:33:52.590Z,6.80
2018-07-31T10:36:20.695Z,6.12
2018-07-31T10:38:52.748Z,5.33
2018-07-31T10:41:22.273Z,5.58
2018-07-31T10:43:54.034Z,4.90
2018-07-31T10:46:22.725Z,5.10
2018-07-31T10:48:52.455Z,5.80
2018-07-31T10:51:24.133Z,6.62
2018-07-31T10:53:52.294Z,6.28
2018-07-31T10:56:20.491Z,5.62
2018-07-31T10:58:48.624Z,8.38
2018-07-31T11:01:16.725Z,6.58
2018-07-31T11:03:44.859Z,5.47
2018-07-31T11:06:22.698Z,5.50
2018-07-31T11:08:50.767Z,5.33
2018-07-31T11:11:18.999Z,6.40
2018-07-31T11:13:47.074Z,7.67
2018-07-31T11:16:15.337Z,5.92
2018-07-31T11:18:53.028Z,5.65
2018-07-31T11:21:21.141Z,5.85
2018-07-31T11:23:49.243Z,5.87
2018-07-31T11:26:17.320Z,6.35
2018-07-31T11:28:51.890Z,6.20
2018-07-31T11:31:23.090Z,6.45
2018-07-31T11:33:51.225Z,6.33
2018-07-31T11:36:19.330Z,7.08
2018-07-31T11:38:53.446Z,7.83
2018-07-31T11:41:22.397Z,6.00
2018-07-31T11:43:54.246Z,5.65
2018-07-31T11:46:22.398Z,6.30
2018-07-31T11:48:53.562Z,5.42
2018-07-31T11:51:21.657Z,5.65
2018-07-31T11:53:50.082Z,5.62
2018-07-31T11:56:18.005Z,5.35
2018-07-31T11:58:46.075Z,5.25
2018-07-31T12:01:22.416Z,5.20
2018-07-31T12:03:50.491Z,5.95
2018-07-31T12:06:18.620Z,5.37
2018-07-31T12:08:46.709Z,5.65
2018-07-31T12:11:22.655Z,6.97
2018-07-31T12:13:50.754Z,6.35
2018-07-31T12:16:18.883Z,5.25
2018-07-31T12:18:53.367Z,6.67
2018-07-31T12:21:21.532Z,5.55
2018-07-31T12:23:53.280Z,5.33
2018-07-31T12:26:21.397Z,5.58
2018-07-31T12:28:49.528Z,6.33
2018-07-31T12:31:23.647Z,5.65
2018-07-31T12:33:52.134Z,6.62
2018-07-31T12:36:20.217Z,7.55
2018-07-31T12:38:54.595Z,5.83
2018-07-31T12:41:22.690Z,7.40
2018-07-31T12:43:50.783Z,8.58
2018-07-31T12:46:18.935Z,5.20
2018-07-31T12:48:47.056Z,5.85
2018-07-31T12:51:22.233Z,6.47
2018-07-31T12:53:50.294Z,5.85
2018-07-31T12:56:24.570Z,5.75
2018-07-31T12:59:02.333Z,6.78
2018-07-31T13:01:30.448Z,5.60
2018-07-31T13:04:04.691Z,6.28
2018-07-31T13:06:43.233Z,5.70
2018-07-31T13:09:11.290Z,5.17
2018-07-31T13:11:43.245Z,5.17
2018-07-31T13:14:13.056Z,6.62
2018-07-31T13:16:42.800Z,5.12
2018-07-31T13:19:11.879Z,5.47
2018-07-31T13:21:43.303Z,10.50
2018-07-31T13:24:13.043Z,9.48
2018-07-31T13:26:42.149Z,5.67
2018-07-31T13:29:13.479Z,5.35
2018-07-31T13:31:43.219Z,5.33
2018-07-31T13:34:11.318Z,5.42
2018-07-31T13:36:39.445Z,5.42
2018-07-31T13:39:08.884Z,5.55
2018-07-31T13:41:42.530Z,5.67
2018-07-31T13:44:10.807Z,5.53
2018-07-31T13:46:38.766Z,5.10
2018-07-31T13:49:12.619Z,6.08
2018-07-31T13:51:40.703Z,5.10
2018-07-31T13:54:12.672Z,5.45
2018-07-31T13:56:42.390Z,6.80
2018-07-31T13:59:10.465Z,5.72
2018-07-31T14:01:44.265Z,5.03
2018-07-31T14:04:21.909Z,5.30
2018-07-31T14:06:50.069Z,5.67
2018-07-31T14:09:18.127Z,5.10
2018-07-31T14:11:46.207Z,5.25
2018-07-31T14:14:22.624Z,5.40
2018-07-31T14:16:50.695Z,5.95
2018-07-31T14:19:22.401Z,5.65
2018-07-31T14:21:54.165Z,5.42
2018-07-31T14:24:32.504Z,6.75
2018-07-31T14:27:00.863Z,5.28
2018-07-31T14:29:29.220Z,5.33
2018-07-31T14:31:57.318Z,7.20
2018-07-31T14:34:32.206Z,5.30
2018-07-31T14:37:00.086Z,8.40
2018-07-31T14:39:28.158Z,5.20
2018-07-31T14:42:02.220Z,8.30
2018-07-31T14:44:30.300Z,5.42
2018-07-31T14:47:04.479Z,5.75
2018-07-31T14:49:42.235Z,5.08
2018-07-31T14:52:10.321Z,5.37
2018-07-31T14:54:38.411Z,5.58
2018-07-31T14:57:12.387Z,5.37
2018-07-31T14:59:40.462Z,5.97
2018-07-31T15:02:08.562Z,5.05
2018-07-31T15:04:42.317Z,5.30
2018-07-31T15:07:10.457Z,8.75
2018-07-31T15:09:38.510Z,5.00
2018-07-31T15:12:12.540Z,5.75
2018-07-31T15:14:43.920Z,5.33
2018-07-31T15:17:12.850Z,5.42
2018-07-31T15:19:40.933Z,7.60
2018-07-31T15:22:12.656Z,5.92
2018-07-31T15:24:42.266Z,6.28
2018-07-31T15:27:10.318Z,5.70
2018-07-31T15:29:38.452Z,5.87
2018-07-31T15:32:06.554Z,5.53
2018-07-31T15:34:41.821Z,5.12
2018-07-31T15:37:09.888Z,5.03
2018-07-31T15:39:37.950Z,5.58
2018-07-31T15:42:06.064Z,5.42
2018-07-31T15:44:41.386Z,5.40
2018-07-31T15:47:09.538Z,6.42
2018-07-31T15:49:37.676Z,5.80
2018-07-31T15:52:11.930Z,5.78
2018-07-31T15:54:40.026Z,6.20
2018-07-31T15:57:14.513Z,6.35
2018-07-31T15:59:52.259Z,5.47
2018-07-31T16:02:20.327Z,6.08
2018-07-31T16:04:48.489Z,6.05
2018-07-31T16:07:16.552Z,5.87
2018-07-31T16:09:44.663Z,6.20
2018-07-31T16:12:22.669Z,5.67
2018-07-31T16:14:50.722Z,6.35
2018-07-31T16:17:22.727Z,9.90
2018-07-31T16:19:50.785Z,5.95
2018-07-31T16:22:22.412Z,7.70
2018-07-31T16:24:54.241Z,5.37
2018-07-31T16:27:32.477Z,6.45
2018-07-31T16:30:00.554Z,10.25
2018-07-31T16:32:28.663Z,8.75
2018-07-31T16:34:56.737Z,6.42
2018-07-31T16:37:24.850Z,6.55
2018-07-31T16:39:53.016Z,6.62
2018-07-31T16:42:21.128Z,6.78
2018-07-31T16:44:52.957Z,6.47
2018-07-31T16:47:21.275Z,6.45
2018-07-31T16:49:49.382Z,9.28
2018-07-31T16:52:17.574Z,6.47
2018-07-31T16:54:45.649Z,8.23
2018-07-31T16:57:13.881Z,7.08
2018-07-31T16:59:41.993Z,5.87
2018-07-31T17:02:13.773Z,6.22
2018-07-31T17:04:41.878Z,6.92
2018-07-31T17:07:13.214Z,6.55
2018-07-31T17:09:42.336Z,6.83
2018-07-31T17:12:10.925Z,7.75
2018-07-31T17:14:38.958Z,6.12
2018-07-31T17:17:07.129Z,6.08
2018-07-31T17:19:35.205Z,7.03
2018-07-31T17:22:11.764Z,6.70
2018-07-31T17:24:39.833Z,6.60
2018-07-31T17:27:14.031Z,6.40
2018-07-31T17:29:42.142Z,6.35
2018-07-31T17:32:13.991Z,6.90
2018-07-31T17:34:42.578Z,6.90
2018-07-31T17:37:10.670Z,7.03
2018-07-31T17:39:44.432Z,6.67
2018-07-31T17:42:12.569Z,7.05
2018-07-31T17:44:42.310Z,7.47
2018-07-31T17:47:14.102Z,8.15
2018-07-31T17:49:42.226Z,6.80
2018-07-31T17:52:13.623Z,7.25
2018-07-31T17:54:42.346Z,6.80
2018-07-31T17:57:10.517Z,8.50
2018-07-31T17:59:38.485Z,7.10
2018-07-31T18:02:06.415Z,7.95
2018-07-31T18:04:34.601Z,6.45
2018-07-31T18:07:12.959Z,7.45
2018-07-31T18:09:41.146Z,7.20
2018-07-31T18:12:09.314Z,7.15
2018-07-31T18:14:43.680Z,6.62
2018-07-31T18:17:11.812Z,6.65
2018-07-31T18:19:43.970Z,6.67
2018-07-31T18:22:12.063Z,6.25
2018-07-31T18:24:44.146Z,6.92
2018-07-31T18:27:22.523Z,7.35
2018-07-31T18:29:50.682Z,7.12
2018-07-31T18:32:18.847Z,6.80
2018-07-31T18:34:47.019Z,6.58
2018-07-31T18:37:15.150Z,7.70
2018-07-31T18:39:53.770Z,6.90
2018-07-31T18:42:21.890Z,6.47
2018-07-31T18:44:53.347Z,6.90
2018-07-31T18:47:21.438Z,7.55
2018-07-31T18:49:52.940Z,7.62
2018-07-31T18:52:21.245Z,6.20
2018-07-31T18:54:53.673Z,7.15
2018-07-31T18:57:21.748Z,7.08
2018-07-31T18:59:49.989Z,6.42
2018-07-31T19:02:17.914Z,6.72
2018-07-31T19:07:41.581Z,6.55
2018-07-31T19:10:09.671Z,7.05
2018-07-31T19:12:37.759Z,6.70
2018-07-31T19:15:05.966Z,6.80
2018-07-31T19:17:34.090Z,9.98
2018-07-31T19:20:02.197Z,7.83
2018-07-31T19:22:30.314Z,6.78
2018-07-31T19:24:58.423Z,7.10
2018-07-31T19:27:32.824Z,8.33
2018-07-31T19:30:00.999Z,6.87
2018-07-31T19:32:32.633Z,6.85
2018-07-31T19:35:02.447Z,8.68
2018-07-31T19:37:30.530Z,6.55
2018-07-31T19:39:58.565Z,7.62
2018-07-31T19:42:26.647Z,7.05
2018-07-31T19:45:01.801Z,7.10
2018-07-31T19:47:29.863Z,7.55
2018-07-31T19:50:04.482Z,8.55
2018-07-31T19:52:32.518Z,7.55
2018-07-31T19:55:00.942Z,7.65
2018-07-31T19:57:32.410Z,8.73
2018-07-31T20:00:00.478Z,10.05
2018-07-31T20:02:28.530Z,13.30
2018-07-31T20:05:02.218Z,8.83
2018-07-31T20:07:33.446Z,11.43
2018-07-31T20:10:01.506Z,7.45
2018-07-31T20:12:32.673Z,7.70
2018-07-31T20:15:02.340Z,6.92
2018-07-31T20:17:34.232Z,7.50
2018-07-31T20:20:12.450Z,7.97
2018-07-31T20:22:42.373Z,10.55
2018-07-31T20:25:14.081Z,9.75
2018-07-31T20:27:42.624Z,8.60
2018-07-31T20:30:12.609Z,7.80
2018-07-31T20:32:42.569Z,8.25
2018-07-31T20:35:19.091Z,8.45
2018-07-31T20:37:47.323Z,8.50
2018-07-31T20:40:15.401Z,8.30
2018-07-31T20:42:43.502Z,9.15
2018-07-31T20:45:11.614Z,10.03
2018-07-31T20:47:39.668Z,10.23
2018-07-31T20:50:07.597Z,8.13
2018-07-31T20:52:35.791Z,8.35
2018-07-31T20:55:12.446Z,7.95
2018-07-31T20:57:40.541Z,8.05
2018-07-31T21:00:08.605Z,10.38
2018-07-31T21:02:36.670Z,8.33
2018-07-31T21:05:12.015Z,8.28
2018-07-31T21:07:40.122Z,8.05
2018-07-31T21:10:15.116Z,8.50
2018-07-31T21:12:52.971Z,8.00
2018-07-31T21:15:21.256Z,7.78
2018-07-31T21:17:50.143Z,8.18
2018-07-31T21:20:18.185Z,10.75
2018-07-31T21:22:46.219Z,7.97
2018-07-31T21:25:22.461Z,8.13
2018-07-31T21:27:50.553Z,8.58
2018-07-31T21:30:18.621Z,7.70
2018-07-31T21:32:52.638Z,8.35
2018-07-31T21:35:20.859Z,8.20
2018-07-31T21:37:48.982Z,8.75
2018-07-31T21:40:22.739Z,8.00
2018-07-31T21:42:54.026Z,8.40
2018-07-31T21:45:22.762Z,9.53
2018-07-31T21:47:54.376Z,10.05
2018-07-31T21:50:23.050Z,9.35
2018-07-31T21:52:52.667Z,8.28
2018-07-31T21:55:24.226Z,8.68
2018-07-31T21:57:52.265Z,8.65
2018-07-31T22:00:23.553Z,8.58
2018-07-31T22:02:53.416Z,9.15
2018-07-31T22:05:21.660Z,10.00
2018-07-31T22:07:49.879Z,9.25
2018-07-31T22:10:17.966Z,9.23
2018-07-31T22:12:46.022Z,9.50
2018-07-31T22:15:14.104Z,8.73
2018-07-31T22:17:43.278Z,8.95
2018-07-31T22:20:11.341Z,9.38
2018-07-31T22:22:39.398Z,9.25
2018-07-31T22:25:13.193Z,10.55
2018-07-31T22:27:41.288Z,8.70
2018-07-31T22:30:09.446Z,10.38
2018-07-31T22:32:37.878Z,9.03
2018-07-31T22:35:12.530Z,9.13
2018-07-31T22:37:40.577Z,11.50
2018-07-31T22:40:14.794Z,11.08
2018-07-31T22:42:52.955Z,10.70
2018-07-31T22:45:22.649Z,9.85
2018-07-31T22:47:50.737Z,9.15
2018-07-31T22:50:24.519Z,8.50
2018-07-31T22:52:52.586Z,10.13
2018-07-31T22:55:20.797Z,10.18
2018-07-31T22:57:48.878Z,9.18
2018-07-31T23:00:16.951Z,8.95
2018-07-31T23:02:52.958Z,11.18
2018-07-31T23:05:21.141Z,16.90
2018-07-31T23:07:49.175Z,15.10
2018-07-31T23:10:23.425Z,11.95
2018-07-31T23:12:51.266Z,9.13
2018-07-31T23:15:22.546Z,8.57
2018-07-31T23:17:54.185Z,11.97
2018-07-31T23:20:22.197Z,14.27
2018-07-31T23:22:51.359Z,15.57
2018-07-31T23:25:19.555Z,11.70
2018-07-31T23:27:47.614Z,13.90
2018-07-31T23:30:15.638Z,20.37
2018-07-31T23:32:53.373Z,21.50
2018-07-31T23:35:21.478Z,28.00
2018-07-31T23:37:49.636Z,22.73
2018-07-31T23:40:17.520Z,20.73
2018-07-31T23:42:46.590Z,15.50
2018-07-31T23:45:22.732Z,14.10
2018-07-31T23:47:50.757Z,18.53
2018-07-31T23:50:18.781Z,21.47
2018-07-31T23:52:52.837Z,22.93
2018-07-31T23:55:20.916Z,25.80
2018-07-31T23:57:52.695Z,23.37
